createdAt,value
2022-09-07T00:01:11.853Z,99.90
2022-09-07T00:03:39.132Z,99.90
2022-09-07T00:06:09.746Z,99.90
2022-09-07T00:08:37.852Z,99.90
2022-09-07T00:11:10.689Z,99.90
2022-09-07T00:13:41.163Z,99.90
2022-09-07T00:16:24.672Z,99.90
2022-09-07T00:18:55.775Z,99.90
2022-09-07T00:21:27.585Z,99.90
2022-09-07T00:23:55.595Z,99.90
2022-09-07T00:26:30.037Z,99.90
2022-09-07T00:29:03.338Z,99.90
2022-09-07T00:31:31.509Z,99.90
2022-09-07T00:34:01.510Z,99.90
2022-09-07T00:36:29.155Z,99.90
2022-09-07T00:38:56.495Z,99.90
2022-09-07T00:41:24.431Z,99.90
2022-09-07T00:44:19.963Z,99.90
2022-09-07T00:46:47.408Z,99.90
2022-09-07T00:49:22.046Z,99.90
2022-09-07T00:51:54.865Z,99.90
2022-09-07T00:54:30.236Z,99.90
2022-09-07T00:56:57.819Z,99.90
2022-09-07T00:59:34.334Z,99.90
2022-09-07T01:02:02.530Z,99.90
2022-09-07T01:04:35.055Z,99.90
2022-09-07T01:07:05.613Z,99.90
2022-09-07T01:09:36.130Z,99.90
2022-09-07T01:12:04.720Z,99.90
2022-09-07T01:14:41.417Z,99.90
2022-09-07T01:17:34.908Z,99.90
2022-09-07T01:20:36.474Z,99.90
2022-09-07T01:24:10.554Z,99.90
2022-09-07T01:27:02.312Z,99.90
2022-09-07T01:29:35.976Z,99.90
2022-09-07T01:33:03.436Z,99.90
2022-09-07T01:35:47.868Z,99.90
2022-09-07T01:38:52.361Z,99.90
2022-09-07T01:41:44.148Z,99.90
2022-09-07T01:44:23.355Z,99.90
2022-09-07T01:47:13.492Z,99.90
2022-09-07T01:50:02.010Z,99.90
2022-09-07T01:52:44.372Z,99.90
2022-09-07T01:55:24.556Z,99.90
2022-09-07T01:58:28.013Z,99.90
2022-09-07T02:01:13.080Z,99.90
2022-09-07T02:04:10.807Z,99.90
2022-09-07T02:07:09.648Z,99.90
2022-09-07T02:09:54.441Z,99.90
2022-09-07T02:12:35.213Z,99.90
2022-09-07T02:15:23.826Z,99.90
2022-09-07T02:17:58.073Z,99.90
2022-09-07T02:20:31.547Z,99.90
2022-09-07T02:23:04.282Z,99.90
2022-09-07T02:25:44.517Z,99.90
2022-09-07T02:28:20.756Z,99.90
2022-09-07T02:30:48.335Z,99.90
2022-09-07T02:33:15.535Z,99.90
2022-09-07T02:35:42.610Z,99.90
2022-09-07T02:38:13.394Z,99.90
2022-09-07T02:40:40.693Z,99.90
2022-09-07T02:43:12.120Z,99.90
2022-09-07T02:46:20.889Z,99.90
2022-09-07T02:49:05.327Z,99.90
2022-09-07T02:51:42.833Z,99.90
2022-09-07T02:54:39.009Z,99.90
2022-09-07T02:57:15.645Z,99.90
2022-09-07T03:00:10.168Z,99.90
2022-09-07T03:03:16.316Z,99.90
2022-09-07T03:05:50.072Z,99.90
2022-09-07T03:08:31.556Z,99.90
2022-09-07T03:10:59.918Z,99.90
2022-09-07T03:13:29.693Z,99.90
2022-09-07T03:16:00.046Z,99.90
2022-09-07T03:18:28.942Z,99.90
2022-09-07T03:20:56.793Z,99.90
2022-09-07T03:23:27.062Z,99.90
2022-09-07T03:25:54.333Z,99.90
2022-09-07T03:28:21.428Z,99.90
2022-09-07T03:30:48.743Z,99.90
2022-09-07T03:33:17.244Z,99.90
2022-09-07T03:35:59.861Z,99.90
2022-09-07T03:38:27.119Z,99.90
2022-09-07T03:41:03.755Z,99.90
2022-09-07T03:43:34.723Z,99.90
2022-09-07T03:46:07.082Z,99.90
2022-09-07T03:48:39.369Z,99.90
2022-09-07T03:51:10.263Z,99.90
2022-09-07T03:53:42.206Z,99.90
2022-09-07T03:56:19.538Z,99.90
2022-09-07T03:58:49.038Z,99.90
2022-09-07T04:01:24.033Z,99.90
2022-09-07T04:03:53.095Z,99.90
2022-09-07T04:06:20.679Z,99.90
2022-09-07T04:08:48.313Z,99.90
2022-09-07T04:11:18.840Z,99.90
2022-09-07T04:13:46.616Z,99.90
2022-09-07T04:16:20.829Z,99.90
2022-09-07T04:18:54.733Z,99.90
2022-09-07T04:21:23.920Z,99.90
2022-09-07T04:23:54.072Z,99.90
2022-09-07T04:26:31.352Z,99.90
2022-09-07T04:29:01.843Z,99.90
2022-09-07T04:31:29.551Z,99.90
2022-09-07T04:33:56.793Z,99.90
2022-09-07T04:36:26.915Z,99.90
2022-09-07T04:39:03.988Z,99.90
2022-09-07T04:41:33.404Z,99.90
2022-09-07T04:44:03.417Z,99.90
2022-09-07T04:46:34.587Z,99.90
2022-09-07T04:49:08.705Z,99.90
2022-09-07T04:51:42.566Z,99.90
2022-09-07T04:54:10.777Z,99.90
2022-09-07T04:56:37.924Z,99.90
2022-09-07T04:59:08.329Z,99.90
2022-09-07T05:01:35.663Z,99.90
2022-09-07T05:04:06.220Z,99.90
2022-09-07T05:06:34.497Z,99.90
2022-09-07T05:09:01.929Z,99.90
2022-09-07T05:11:30.180Z,99.90
2022-09-07T05:14:02.720Z,99.90
2022-09-07T05:16:31.396Z,99.90
2022-09-07T05:19:02.552Z,99.90
2022-09-07T05:21:33.370Z,99.90
2022-09-07T05:24:05.531Z,99.90
2022-09-07T05:26:37.182Z,99.90
2022-09-07T05:31:54.114Z,99.90
2022-09-07T05:36:56.024Z,99.90
2022-09-07T05:39:23.585Z,99.90
2022-09-07T05:41:50.827Z,99.90
2022-09-07T05:47:06.966Z,99.90
2022-09-07T05:49:37.664Z,99.90
2022-09-07T05:52:05.051Z,99.90
2022-09-07T05:54:32.375Z,99.90
2022-09-07T05:56:59.523Z,99.90
2022-09-07T05:59:29.913Z,99.90
2022-09-07T06:01:57.057Z,99.90
2022-09-07T06:04:26.994Z,99.90
2022-09-07T06:12:29.127Z,99.90
2022-09-07T06:14:56.283Z,99.90
2022-09-07T06:17:23.435Z,99.90
2022-09-07T06:19:50.679Z,99.90
2022-09-07T06:22:26.716Z,99.90
2022-09-07T06:24:57.335Z,99.90
2022-09-07T06:27:24.861Z,99.90
2022-09-07T06:29:52.457Z,99.90
2022-09-07T06:35:15.639Z,99.90
2022-09-07T06:37:46.040Z,99.90
2022-09-07T06:40:13.264Z,99.90
2022-09-07T06:42:40.814Z,99.90
2022-09-07T06:45:14.230Z,99.90
2022-09-07T06:47:41.500Z,99.90
2022-09-07T06:50:09.635Z,99.90
2022-09-07T06:55:27.941Z,99.90
2022-09-07T06:57:55.023Z,99.90
2022-09-07T07:00:22.213Z,99.90
2022-09-07T07:02:52.828Z,99.90
2022-09-07T07:05:20.057Z,99.90
2022-09-07T07:07:47.683Z,99.90
2022-09-07T07:10:14.799Z,99.90
2022-09-07T07:15:09.041Z,99.90
2022-09-07T07:17:36.690Z,99.90
2022-09-07T07:20:07.900Z,99.90
2022-09-07T07:22:50.219Z,99.90
2022-09-07T07:25:17.938Z,99.90
2022-09-07T07:27:46.418Z,99.90
2022-09-07T07:30:18.369Z,99.90
2022-09-07T07:32:46.186Z,99.90
2022-09-07T07:35:14.538Z,99.90
2022-09-07T07:37:41.729Z,99.90
2022-09-07T07:40:15.136Z,99.90
2022-09-07T07:42:46.856Z,99.90
2022-09-07T07:48:01.955Z,99.90
2022-09-07T07:50:32.894Z,99.90
2022-09-07T07:55:47.867Z,99.90
2022-09-07T07:58:15.124Z,99.90
2022-09-07T08:00:54.243Z,99.90
2022-09-07T08:03:23.820Z,99.90
2022-09-07T08:05:51.151Z,99.90
2022-09-07T08:08:18.652Z,99.90
2022-09-07T08:10:47.311Z,99.90
2022-09-07T08:13:16.002Z,99.90
2022-09-07T08:15:46.367Z,99.90
2022-09-07T08:18:15.898Z,99.90
2022-09-07T08:20:44.152Z,99.90
2022-09-07T08:23:15.265Z,99.90
2022-09-07T08:25:53.576Z,99.90
2022-09-07T08:28:23.489Z,99.90
2022-09-07T08:30:50.651Z,99.90
2022-09-07T08:33:17.971Z,99.90
2022-09-07T08:36:05.971Z,99.90
2022-09-07T08:38:35.201Z,99.90
2022-09-07T08:41:20.039Z,99.90
2022-09-07T08:43:58.786Z,99.90
2022-09-07T08:46:34.741Z,99.90
2022-09-07T08:49:16.420Z,99.90
2022-09-07T08:52:12.319Z,99.90
2022-09-07T08:54:44.248Z,99.90
2022-09-07T08:57:22.152Z,99.90
2022-09-07T09:00:07.313Z,99.90
2022-09-07T09:02:43.115Z,99.90
2022-09-07T09:05:44.682Z,99.90
2022-09-07T09:08:41.036Z,99.90
2022-09-07T09:11:33.711Z,99.90
2022-09-07T09:14:38.196Z,99.90
2022-09-07T09:17:26.123Z,99.90
2022-09-07T09:20:13.547Z,99.90
2022-09-07T09:22:40.858Z,99.90
2022-09-07T09:25:30.261Z,99.90
2022-09-07T09:27:57.440Z,99.90
2022-09-07T09:30:25.278Z,99.90
2022-09-07T09:33:22.231Z,99.90
2022-09-07T09:35:52.781Z,99.90
2022-09-07T09:38:35.984Z,99.90
2022-09-07T09:41:15.005Z,99.90
2022-09-07T09:43:58.201Z,99.90
2022-09-07T09:46:35.439Z,99.90
2022-09-07T09:49:20.144Z,99.90
2022-09-07T09:54:43.489Z,99.90
2022-09-07T09:57:37.052Z,99.90
2022-09-07T10:00:27.866Z,99.90
2022-09-07T10:05:54.416Z,99.90
2022-09-07T10:08:33.411Z,99.90
2022-09-07T10:11:06.450Z,99.90
2022-09-07T10:13:46.855Z,99.90
2022-09-07T10:16:17.441Z,99.90
2022-09-07T10:18:58.451Z,99.90
2022-09-07T10:21:31.782Z,99.90
2022-09-07T10:24:04.776Z,99.90
2022-09-07T10:26:39.284Z,99.90
2022-09-07T10:29:36.673Z,99.90
2022-09-07T10:32:39.852Z,99.90
2022-09-07T10:35:26.976Z,99.90
2022-09-07T10:38:04.695Z,99.90
2022-09-07T10:40:56.575Z,99.90
2022-09-07T10:43:47.246Z,99.90
2022-09-07T10:46:57.010Z,99.90
2022-09-07T10:49:30.595Z,99.90
2022-09-07T10:52:13.884Z,99.90
2022-09-07T10:55:11.105Z,99.90
2022-09-07T10:58:13.246Z,99.90
2022-09-07T11:01:10.711Z,99.90
2022-09-07T11:04:24.548Z,99.90
2022-09-07T11:07:08.740Z,99.90
2022-09-07T11:10:07.979Z,99.90
2022-09-07T11:12:38.869Z,99.90
2022-09-07T11:15:12.885Z,99.90
2022-09-07T11:18:13.998Z,99.90
2022-09-07T11:20:55.520Z,99.90
2022-09-07T11:23:37.812Z,99.90
2022-09-07T11:26:37.455Z,99.90
2022-09-07T11:29:34.687Z,99.90
2022-09-07T11:32:22.880Z,99.90
2022-09-07T11:35:03.891Z,99.90
2022-09-07T11:37:59.272Z,99.90
2022-09-07T11:41:15.366Z,99.90
2022-09-07T11:44:00.855Z,99.90
2022-09-07T11:46:56.403Z,99.90
2022-09-07T11:49:26.033Z,99.40
2022-09-07T11:52:10.380Z,98.60
2022-09-07T11:54:55.509Z,98.20
2022-09-07T11:57:54.917Z,98.20
2022-09-07T12:00:57.374Z,97.20
2022-09-07T12:03:38.204Z,97.20
2022-09-07T12:06:15.392Z,96.60
2022-09-07T12:09:37.117Z,96.30
2022-09-07T12:12:32.393Z,96.00
2022-09-07T12:16:03.386Z,95.30
2022-09-07T12:18:54.163Z,95.60
2022-09-07T12:21:43.340Z,95.10
2022-09-07T12:24:37.243Z,96.40
2022-09-07T12:27:22.425Z,96.10
2022-09-07T12:29:58.427Z,95.70
2022-09-07T12:32:55.615Z,95.30
2022-09-07T12:35:42.856Z,94.60
2022-09-07T12:38:19.117Z,94.10
2022-09-07T12:41:20.560Z,93.90
2022-09-07T12:43:50.683Z,93.30
2022-09-07T12:46:53.503Z,92.70
2022-09-07T12:49:53.480Z,92.50
2022-09-07T12:52:48.663Z,91.80
2022-09-07T12:58:50.045Z,90.80
2022-09-07T13:01:40.859Z,91.30
2022-09-07T13:04:56.515Z,90.50
2022-09-07T13:08:19.017Z,91.20
2022-09-07T13:10:47.417Z,88.20
2022-09-07T13:13:14.583Z,87.90
2022-09-07T13:16:15.763Z,89.00
2022-09-07T13:18:46.971Z,88.00
2022-09-07T13:21:15.567Z,88.50
2022-09-07T13:27:11.179Z,86.10
2022-09-07T13:29:41.146Z,85.50
2022-09-07T13:35:19.297Z,83.70
2022-09-07T13:37:58.178Z,81.10
2022-09-07T13:40:45.262Z,79.30
2022-09-07T13:43:20.558Z,81.40
2022-09-07T13:45:53.881Z,80.40
2022-09-07T13:48:47.062Z,80.40
2022-09-07T13:51:43.447Z,80.50
2022-09-07T13:55:02.628Z,79.40
2022-09-07T13:58:11.950Z,78.50
2022-09-07T14:00:54.815Z,77.40
2022-09-07T14:03:25.842Z,76.20
2022-09-07T14:06:20.825Z,75.10
2022-09-07T14:09:04.378Z,76.50
2022-09-07T14:11:56.728Z,74.60
2022-09-07T14:14:30.188Z,74.00
2022-09-07T14:17:00.257Z,73.60
2022-09-07T14:20:05.952Z,74.40
2022-09-07T14:22:35.390Z,74.20
2022-09-07T14:25:07.582Z,74.40
2022-09-07T14:27:44.479Z,72.80
2022-09-07T14:30:24.728Z,75.00
2022-09-07T14:33:17.395Z,73.30
2022-09-07T14:35:44.898Z,73.60
2022-09-07T14:44:01.789Z,71.00
2022-09-07T14:46:36.464Z,70.60
2022-09-07T14:49:20.633Z,69.90
2022-09-07T14:51:49.149Z,69.60
2022-09-07T14:54:21.543Z,71.20
2022-09-07T14:57:18.233Z,70.70
2022-09-07T14:59:48.391Z,71.60
2022-09-07T15:02:31.770Z,72.80
2022-09-07T15:05:41.931Z,74.90
2022-09-07T15:08:35.426Z,74.80
2022-09-07T15:11:38.970Z,73.50
2022-09-07T15:14:19.728Z,74.30
2022-09-07T15:19:50.428Z,73.90
2022-09-07T15:22:19.180Z,74.50
2022-09-07T15:24:50.286Z,75.50
2022-09-07T15:27:27.547Z,76.40
2022-09-07T15:29:54.733Z,75.80
2022-09-07T15:32:22.066Z,76.70
2022-09-07T15:34:49.283Z,76.90
2022-09-07T15:40:16.258Z,76.20
2022-09-07T15:45:30.537Z,79.10
2022-09-07T15:48:00.679Z,79.10
2022-09-07T15:50:27.825Z,79.20
2022-09-07T15:52:55.147Z,78.80
2022-09-07T15:55:25.489Z,79.20
2022-09-07T15:58:05.234Z,79.10
2022-09-07T16:00:41.322Z,79.30
2022-09-07T16:03:09.842Z,81.00
2022-09-07T16:05:44.022Z,80.90
2022-09-07T16:08:32.724Z,82.20
2022-09-07T16:11:11.276Z,82.40
2022-09-07T16:13:47.003Z,80.50
2022-09-07T16:16:18.428Z,81.20
2022-09-07T16:18:47.247Z,81.90
2022-09-07T16:21:16.054Z,81.60
2022-09-07T16:23:47.914Z,82.70
2022-09-07T16:26:16.684Z,84.10
2022-09-07T16:28:47.210Z,84.70
2022-09-07T16:31:22.429Z,85.00
2022-09-07T16:33:52.711Z,84.30
2022-09-07T16:36:23.544Z,85.20
2022-09-07T16:39:00.548Z,84.40
2022-09-07T16:41:32.063Z,84.50
2022-09-07T16:44:02.496Z,84.10
2022-09-07T16:46:30.968Z,84.30
2022-09-07T16:48:58.201Z,85.00
2022-09-07T16:51:25.261Z,86.40
2022-09-07T16:53:55.310Z,87.00
2022-09-07T16:56:29.091Z,86.40
2022-09-07T16:59:02.931Z,86.90
2022-09-07T17:01:36.577Z,86.90
2022-09-07T17:04:09.793Z,86.60
2022-09-07T17:06:39.961Z,86.10
2022-09-07T17:09:07.957Z,86.10
2022-09-07T17:11:37.060Z,86.80
2022-09-07T17:14:07.859Z,87.80
2022-09-07T17:16:39.213Z,87.30
2022-09-07T17:21:55.470Z,87.80
2022-09-07T17:24:24.457Z,88.00
2022-09-07T17:26:51.580Z,87.90
2022-09-07T17:29:22.320Z,88.10
2022-09-07T17:34:39.926Z,89.10
2022-09-07T17:37:10.714Z,90.10
2022-09-07T17:39:38.934Z,90.30
2022-09-07T17:42:06.313Z,90.60
2022-09-07T17:44:38.023Z,91.90
2022-09-07T17:47:06.236Z,92.40
2022-09-07T17:49:33.483Z,92.10
2022-09-07T17:52:01.700Z,92.20
2022-09-07T17:54:29.114Z,92.30
2022-09-07T17:56:56.725Z,93.60
2022-09-07T18:02:14.086Z,96.20
2022-09-07T18:04:41.856Z,96.50
2022-09-07T18:07:09.420Z,96.90
2022-09-07T18:09:37.255Z,97.50
2022-09-07T18:12:07.945Z,98.00
2022-09-07T18:14:35.381Z,99.10
2022-09-07T18:17:02.638Z,99.70
2022-09-07T18:19:29.975Z,99.90
2022-09-07T18:22:02.724Z,99.90
2022-09-07T18:24:30.386Z,99.90
2022-09-07T18:26:57.918Z,99.90
2022-09-07T18:29:33.438Z,99.90
2022-09-07T18:32:09.360Z,99.90
2022-09-07T18:34:41.123Z,99.90
2022-09-07T18:37:12.527Z,99.90
2022-09-07T18:39:40.733Z,99.90
2022-09-07T18:42:09.212Z,99.90
2022-09-07T18:47:28.726Z,99.90
2022-09-07T18:49:59.962Z,99.90
2022-09-07T18:55:16.899Z,99.90
2022-09-07T18:57:44.896Z,99.90
2022-09-07T19:00:14.285Z,99.90
2022-09-07T19:02:42.386Z,99.90
2022-09-07T19:07:59.847Z,99.90
2022-09-07T19:10:27.579Z,99.90
2022-09-07T19:12:55.670Z,99.90
2022-09-07T19:15:24.088Z,99.90
2022-09-07T19:17:51.612Z,99.90
2022-09-07T19:20:19.255Z,99.90
2022-09-07T19:22:46.841Z,99.90
2022-09-07T19:25:14.366Z,99.90
2022-09-07T19:27:45.581Z,99.90
2022-09-07T19:30:13.909Z,99.90
2022-09-07T19:32:45.475Z,99.90
2022-09-07T19:35:16.828Z,99.90
2022-09-07T19:37:44.504Z,99.90
2022-09-07T19:40:19.061Z,99.90
2022-09-07T19:42:48.002Z,99.90
2022-09-07T19:45:18.568Z,99.90
2022-09-07T19:47:46.210Z,99.90
2022-09-07T19:50:13.751Z,99.90
2022-09-07T19:52:41.461Z,99.90
2022-09-07T19:55:10.102Z,99.90
2022-09-07T19:57:38.836Z,99.90
2022-09-07T20:00:07.473Z,99.90
2022-09-07T20:02:38.362Z,99.90
2022-09-07T20:05:06.851Z,99.90
2022-09-07T20:07:34.403Z,99.90
2022-09-07T20:10:02.054Z,99.90
2022-09-07T20:12:35.813Z,99.90
2022-09-07T20:15:03.518Z,99.90
2022-09-07T20:17:35.160Z,99.90
2022-09-07T20:20:03.886Z,99.90
2022-09-07T20:22:31.769Z,99.90
2022-09-07T20:25:02.414Z,99.90
2022-09-07T20:27:36.037Z,99.90
2022-09-07T20:30:04.185Z,99.90
2022-09-07T20:32:31.567Z,99.90
2022-09-07T20:35:02.287Z,99.90
2022-09-07T20:37:30.011Z,99.90
2022-09-07T20:39:57.098Z,99.90
2022-09-07T20:42:24.265Z,99.90
2022-09-07T20:44:51.241Z,99.90
2022-09-07T20:47:18.335Z,99.90
2022-09-07T20:49:45.736Z,99.90
2022-09-07T20:52:15.865Z,99.90
2022-09-07T20:54:42.880Z,99.90
2022-09-07T20:57:10.038Z,99.90
2022-09-07T20:59:37.230Z,99.90
2022-09-07T21:02:10.177Z,99.90
2022-09-07T21:04:37.541Z,99.90
2022-09-07T21:07:04.848Z,99.90
2022-09-07T21:09:31.899Z,99.90
2022-09-07T21:11:58.952Z,99.90
2022-09-07T21:14:26.870Z,99.90
2022-09-07T21:16:54.160Z,99.90
2022-09-07T21:19:21.561Z,99.90
2022-09-07T21:21:48.704Z,99.90
2022-09-07T21:24:22.298Z,99.90
2022-09-07T21:26:51.138Z,99.90
2022-09-07T21:29:25.839Z,99.90
2022-09-07T21:31:56.074Z,99.90
2022-09-07T21:34:26.887Z,99.90
2022-09-07T21:36:53.958Z,99.90
2022-09-07T21:39:21.553Z,99.90
2022-09-07T21:41:49.035Z,99.90
2022-09-07T21:44:17.176Z,99.90
2022-09-07T21:46:44.753Z,99.90
2022-09-07T21:49:12.464Z,99.90
2022-09-07T21:51:39.668Z,99.90
2022-09-07T21:54:07.096Z,99.90
2022-09-07T21:56:37.188Z,99.90
2022-09-07T21:59:09.447Z,99.90
2022-09-07T22:01:36.688Z,99.90
2022-09-07T22:04:07.039Z,99.90
2022-09-07T22:06:35.304Z,99.90
2022-09-07T22:09:03.793Z,99.90
2022-09-07T22:11:31.524Z,99.90
2022-09-07T22:14:04.784Z,99.90
2022-09-07T22:16:34.410Z,99.90
2022-09-07T22:19:01.854Z,99.90
2022-09-07T22:21:30.340Z,99.90
2022-09-07T22:24:04.000Z,99.90
2022-09-07T22:26:37.629Z,99.90
2022-09-07T22:29:06.687Z,99.90
2022-09-07T22:31:36.799Z,99.90
2022-09-07T22:34:08.159Z,99.90
2022-09-07T22:36:42.794Z,99.90
2022-09-07T22:39:17.836Z,99.90
2022-09-07T22:41:47.272Z,99.90
2022-09-07T22:44:18.250Z,99.90
2022-09-07T22:46:47.486Z,99.90
2022-09-07T22:49:16.971Z,99.90
2022-09-07T22:51:44.843Z,99.90
2022-09-07T22:54:12.488Z,99.90
2022-09-07T22:56:40.324Z,99.90
2022-09-07T22:59:09.445Z,99.90
2022-09-07T23:01:37.960Z,99.90
2022-09-07T23:04:06.204Z,99.90
2022-09-07T23:06:37.739Z,99.90
2022-09-07T23:09:15.993Z,99.90
2022-09-07T23:11:44.327Z,99.90
2022-09-07T23:14:19.216Z,99.90
2022-09-07T23:16:46.772Z,99.90
2022-09-07T23:19:19.749Z,99.90
2022-09-07T23:21:47.775Z,99.90
2022-09-07T23:24:18.160Z,99.90
2022-09-07T23:26:48.831Z,99.90
2022-09-07T23:29:16.525Z,99.90
2022-09-07T23:31:45.860Z,99.90
2022-09-07T23:34:13.025Z,99.90
2022-09-07T23:36:40.407Z,99.90
2022-09-07T23:39:08.056Z,99.90
2022-09-07T23:41:35.206Z,99.90
2022-09-07T23:44:02.484Z,99.90
2022-09-07T23:46:29.756Z,99.90
2022-09-07T23:48:57.226Z,99.90
2022-09-07T23:51:24.912Z,99.90
2022-09-07T23:53:53.257Z,99.90
2022-09-07T23:56:21.721Z,99.90
2022-09-07T23:58:52.223Z,99.90
